Latest Weather Observations for Holsworthy

IDN60801

Issued at 9:02 am EST Sunday 19 April 2015 (issued every 30 minutes, with the page automatically refreshed every 10 minutes)

About weather observations | Map of weather stations | Latest weather observations for NSW | Other Formats
Station Details ID: 066161 Name: HOLSWORTHY AERODROME AWS Lat: -33.99 Lon: 150.95 Height: 68.16 m
Data from the previous 72 hours. | See also: Recent months at Holsworthy
Date/Time
EST
Temp
°C
App
Temp
°C
Dew
Point
Rel
Hum
%
Delta-T
°C
Wind Press
QNH
hPa
Press
MSL
hPa
Rain
since 9 am
mm
Dir
 
Spd
km/h
Gust
km/h
Spd
kts
Gust
kts
19/09:00am 17.6 14.1 10.2 62 3.9 WSW 19 30 10 16 1018.7 1018.5 4.6
19/08:30am 16.8 14.4 11.3 70 3.0 SW 15 24 8 13 1018.4 1018.2 4.6
19/08:00am 15.6 14.8 14.1 91 0.8 SW 11 17 6 9 1018.1 1017.9 4.6
19/07:55am 15.7 15.5 14.7 94 0.6 WSW 9 17 5 9 1018.0 1017.8 4.6
19/07:47am 16.8 17.6 16.3 97 0.3 WSW 7 9 4 5 1018.0 1017.8 4.6
19/07:30am 16.5 16.8 16.0 97 0.3 SW 9 11 5 6 1017.5 1017.3 4.6
19/07:00am 16.6 17.5 16.1 97 0.3 WSW 6 7 3 4 1016.7 1016.5 4.6
19/06:30am 16.7 17.4 16.2 97 0.3 W 7 11 4 6 1016.3 1016.1 4.6
19/06:00am 17.1 18.2 16.6 97 0.3 SW 6 7 3 4 1015.6 1015.4 4.6
19/05:36am 17.1 18.0 16.6 97 0.3 SW 7 9 4 5 1015.2 1015.0 4.6
19/05:30am 16.9 17.7 16.3 96 0.4 SSW 7 9 4 5 1015.0 1014.8 4.6
19/05:29am 16.9 17.3 16.3 96 0.4 SSW 9 9 5 5 1015.0 1014.8 4.6
19/05:25am 16.9 17.3 16.3 96 0.4 SSW 9 9 5 5 1015.1 1014.9 4.6
19/05:13am 16.7 18.0 16.1 96 0.4 W 4 9 2 5 1015.0 1014.8 4.6
19/05:06am 17.1 19.3 16.5 96 0.4 CALM 0 0 0 0 1015.1 1014.9 4.6
19/05:00am 17.4 19.7 16.8 96 0.4 CALM 0 0 0 0 1015.1 1014.9 4.6
19/04:30am 17.5 18.8 17.0 97 0.3 WNW 6 9 3 5 1014.6 1014.4 4.6
19/04:00am 17.3 18.4 16.7 96 0.4 W 6 7 3 4 1014.1 1014.0 4.6
19/03:58am 17.3 18.4 16.7 96 0.4 W 6 7 3 4 1014.0 1013.9 4.6
19/03:30am 17.5 18.7 16.9 96 0.4 WSW 6 7 3 4 1013.9 1013.8 4.6
19/03:00am 17.6 18.7 17.0 96 0.4 W 7 11 4 6 1013.8 1013.7 4.6
19/02:30am 17.7 18.8 17.1 96 0.4 WSW 7 11 4 6 1013.9 1013.8 4.4
19/02:00am 17.7 20.1 16.9 95 0.5 CALM 0 0 0 0 1013.6 1013.5 4.4
19/01:30am 18.1 19.9 17.3 95 0.5 NNE 4 9 2 5 1013.8 1013.7 4.4
19/01:00am 18.2 19.4 17.4 95 0.5 NW 7 11 4 6 1014.9 1014.7 4.2
19/12:30am 18.3 19.2 17.5 95 0.5 N 9 15 5 8 1014.7 1014.5 4.0
19/12:00am 18.4 19.3 17.6 95 0.5 NNW 9 13 5 7 1015.0 1014.8 3.8
 
Date/Time
EST
Temp
°C
App
Temp
°C
Dew
Point
Rel
Hum
%
Delta-T
°C
Wind Press
QNH
hPa
Press
MSL
hPa
Rain
since 9 am
mm
Dir
 
Spd
km/h
Gust
km/h
Spd
kts
Gust
kts
18/11:30pm 18.4 19.2 17.4 94 0.6 NNW 9 11 5 6 1014.8 1014.6 3.0
18/11:00pm 18.6 19.8 17.3 92 0.8 NW 7 11 4 6 1015.1 1014.9 1.4
18/10:30pm 19.2 20.6 17.3 89 1.2 N 6 11 3 6 1015.3 1015.1 0.8
18/10:00pm 19.4 20.6 17.4 88 1.2 W 7 11 4 6 1015.3 1015.1 0.4
18/09:30pm 19.8 20.6 17.4 86 1.5 WSW 9 13 5 7 1015.1 1014.9 0.0
18/09:00pm 20.9 20.1 17.1 79 2.3 NW 17 35 9 19 1014.8 1014.6 0.0
18/08:30pm 21.9 22.9 16.4 71 3.3 NE 6 7 3 4 1013.5 1013.4 0.0
18/08:00pm 22.3 23.2 16.1 68 3.8 NE 6 7 3 4 1013.6 1013.5 0.0
18/07:30pm 22.5 23.4 16.1 67 3.9 ENE 6 7 3 4 1013.5 1013.4 0.0
18/07:00pm 22.8 23.4 15.9 65 4.2 NE 7 11 4 6 1013.3 1013.2 0.0
18/06:30pm 23.1 23.4 15.9 64 4.4 NE 9 11 5 6 1013.3 1013.2 0.0
18/06:00pm 23.5 22.7 16.1 63 4.5 NNE 15 20 8 11 1013.2 1013.1 0.0
18/05:30pm 23.8 23.3 15.8 61 4.8 NNE 13 19 7 10 1013.0 1012.9 0.0
18/05:00pm 24.0 23.2 16.0 61 4.9 NNE 15 24 8 13 1013.0 1012.9 0.0
18/04:30pm 24.6 23.0 16.1 59 5.2 NNE 19 26 10 14 1013.0 1012.9 0.0
18/04:00pm 25.0 23.4 16.4 59 5.3 N 20 30 11 16 1013.2 1013.1 0.0
18/03:30pm 25.6 24.6 16.7 58 5.5 N 17 24 9 13 1013.3 1013.2 0.0
18/03:00pm 25.6 24.3 15.9 55 5.9 N 17 28 9 15 1013.5 1013.4 0.0
18/02:30pm 26.0 24.9 16.3 55 6.0 N 17 28 9 15 1013.8 1013.7 0.0
18/02:00pm 26.0 25.0 16.5 55 5.9 N 17 24 9 13 1013.9 1013.8 0.0
18/01:30pm 26.3 25.2 16.3 54 6.2 N 17 26 9 14 1013.9 1013.8 0.0
18/01:00pm 27.3 26.9 17.2 54 6.3 N 15 20 8 11 1014.1 1014.0 0.0
18/12:30pm 27.7 26.7 17.5 53 6.4 N 19 28 10 15 1014.7 1014.5 0.0
18/12:00pm 26.8 26.2 16.7 54 6.3 NNW 15 24 8 13 1015.4 1015.2 0.0
18/11:30am 26.0 24.8 17.1 58 5.6 NNW 19 28 10 15 1016.1 1015.9 0.0
18/11:00am 25.1 23.8 16.8 60 5.1 N 19 28 10 15 1016.5 1016.3 0.0
18/10:30am 25.1 24.1 17.6 63 4.7 N 19 28 10 15 1016.7 1016.5 0.0
18/10:00am 24.7 24.4 18.2 67 4.1 N 17 24 9 13 1017.0 1016.8 0.0
18/09:30am 23.6 24.2 18.5 73 3.2 N 13 20 7 11 1017.4 1017.2 0.0
18/09:00am 20.9 21.9 18.7 87 1.4 NNE 11 17 6 9 1017.6 1017.4 3.6
18/08:30am 19.9 22.4 19.1 95 0.5 NNE 4 7 2 4 1017.8 1017.6 3.6
18/08:00am 19.3 22.5 18.8 97 0.3 CALM 0 0 0 0 1018.1 1017.9 3.6
18/07:30am 18.7 21.6 18.2 97 0.3 CALM 0 0 0 0 1018.0 1017.8 3.6
18/07:27am 18.6 21.5 18.1 97 0.3 CALM 0 0 0 0 1017.9 1017.7 3.6
18/07:00am 17.9 20.4 17.3 96 0.4 CALM 0 0 0 0 1017.6 1017.4 3.6
18/06:30am 17.8 20.3 17.2 96 0.4 CALM 0 0 0 0 1017.4 1017.2 3.6
18/06:18am 18.2 20.8 17.6 96 0.4 CALM 0 0 0 0 1017.4 1017.2 3.6
18/06:00am 18.7 20.3 18.2 97 0.3 NNE 7 7 4 4 1017.3 1017.1 3.6
18/05:30am 18.8 20.6 18.3 97 0.3 NE 6 7 3 4 1017.2 1017.0 3.6
18/05:00am 18.9 20.7 18.4 97 0.3 NE 6 9 3 5 1017.4 1017.2 3.6
18/04:30am 18.9 20.6 18.4 97 0.3 NE 7 9 4 5 1017.2 1017.0 3.6
18/04:00am 18.8 20.5 18.1 96 0.4 NNE 6 9 3 5 1017.4 1017.2 3.6
18/03:30am 19.0 21.6 18.3 96 0.4 NNE 2 6 1 3 1017.6 1017.4 3.6
18/03:00am 18.8 21.3 18.1 96 0.4 N 2 6 1 3 1017.9 1017.7 3.6
18/02:36am 18.5 21.2 17.7 95 0.5 CALM 0 0 0 0 1018.1 1017.9 3.6
18/02:30am 18.4 21.0 17.6 95 0.5 CALM 0 0 0 0 1018.1 1017.9 3.6
18/02:21am 18.4 21.0 17.4 94 0.6 CALM 0 0 0 0 1018.2 1018.0 3.6
18/02:02am 19.2 22.1 18.2 94 0.6 CALM 0 0 0 0 1018.7 1018.5 3.6
18/02:00am 19.2 22.1 18.2 94 0.6 CALM 0 0 0 0 1018.7 1018.5 3.6
18/01:30am 19.5 22.6 18.7 95 0.5 CALM 0 0 0 0 1019.1 1018.9 3.6
18/01:00am 19.4 21.7 18.6 95 0.5 WNW 4 6 2 3 1019.4 1019.2 3.6
18/12:30am 19.4 22.1 18.6 95 0.5 E 2 7 1 4 1019.9 1019.7 3.6
18/12:29am 19.4 22.5 18.6 95 0.5 CALM 0 7 0 4 1019.9 1019.7 3.6
18/12:00am 19.3 22.3 18.5 95 0.5 CALM 0 0 0 0 1019.9 1019.7 3.6
 
Date/Time
EST
Temp
°C
App
Temp
°C
Dew
Point
Rel
Hum
%
Delta-T
°C
Wind Press
QNH
hPa
Press
MSL
hPa
Rain
since 9 am
mm
Dir
 
Spd
km/h
Gust
km/h
Spd
kts
Gust
kts
17/11:30pm 19.4 22.5 18.6 95 0.5 CALM 0 0 0 0 1020.4 1020.2 3.6
17/11:00pm 19.4 22.5 18.6 95 0.5 CALM 0 0 0 0 1020.7 1020.5 3.6
17/10:30pm 19.3 22.2 18.3 94 0.6 CALM 0 0 0 0 1021.0 1020.8 3.6
17/10:00pm 19.2 21.7 18.2 94 0.6 E 2 6 1 3 1021.2 1021.0 3.6
17/09:30pm 19.2 21.0 18.2 94 0.6 E 6 6 3 3 1021.3 1021.1 3.6
17/09:00pm 19.3 21.1 18.3 94 0.6 E 6 6 3 3 1021.5 1021.4 3.6
17/08:30pm 19.4 21.5 18.2 93 0.7 E 4 7 2 4 1021.7 1021.6 3.6
17/08:00pm 19.3 20.8 18.1 93 0.7 E 7 9 4 5 1021.7 1021.6 3.6
17/07:30pm 19.3 20.8 18.1 93 0.7 E 7 9 4 5 1021.4 1021.2 3.6
17/07:00pm 19.3 20.8 18.1 93 0.7 E 7 9 4 5 1021.5 1021.4 3.6
17/06:30pm 19.6 20.9 18.4 93 0.7 E 9 11 5 6 1021.4 1021.2 3.6
17/06:00pm 19.7 21.0 18.5 93 0.7 ESE 9 11 5 6 1021.3 1021.1 3.6
17/05:30pm 19.8 21.6 18.8 94 0.6 ESE 7 9 4 5 1021.3 1021.1 3.6
17/05:00pm 20.0 21.2 19.0 94 0.6 ESE 11 13 6 7 1021.1 1020.9 3.6
17/04:30pm 20.1 22.3 19.1 94 0.6 ESE 6 9 3 5 1021.1 1020.9 3.6
17/04:00pm 20.1 22.1 19.1 94 0.6 ESE 7 9 4 5 1021.1 1020.9 3.6
17/03:30pm 20.0 21.2 19.0 94 0.6 E 11 13 6 7 1021.2 1021.0 3.6
17/03:00pm 20.0 21.6 19.2 95 0.5 E 9 13 5 7 1021.4 1021.2 3.6
17/02:30pm 19.8 21.3 19.0 95 0.5 E 9 13 5 7 1021.5 1021.4 3.6
17/02:17pm 19.9 21.5 19.1 95 0.5 E 9 15 5 8 1021.6 1021.5 3.6
17/02:00pm 19.8 21.3 19.0 95 0.5 E 9 11 5 6 1021.7 1021.6 3.6
17/01:46pm 19.9 21.5 19.1 95 0.5 ESE 9 13 5 7 1021.8 1021.7 3.6
17/01:30pm 19.9 21.5 19.2 96 0.4 ESE 9 11 5 6 1022.1 1022.0 3.4
17/01:13pm 19.9 21.9 19.2 96 0.4 ESE 7 9 4 5 1022.3 1022.2 3.4
17/01:00pm 19.8 22.7 19.1 96 0.4 E 2 9 1 5 1022.6 1022.5 3.4
17/12:30pm 19.7 21.6 19.0 96 0.4 NNE 7 11 4 6 1023.2 1023.1 3.4
17/12:08pm 19.8 22.0 19.1 96 0.4 ENE 6 9 3 5 1023.5 1023.4 3.4
17/12:00pm 19.8 22.3 19.1 96 0.4 N 4 7 2 4 1023.7 1023.6 3.4
17/11:49am 19.8 21.7 19.0 95 0.5 NNE 7 17 4 9 1024.2 1024.1 2.6
17/11:48am 19.7 21.6 18.9 95 0.5 NNE 7 17 4 9 1024.2 1024.1 2.2
17/11:30am 19.7 21.8 18.9 95 0.5 E 6 15 3 8 1024.2 1024.1 0.2
17/11:00am 19.8 21.9 19.0 95 0.5 E 6 7 3 4 1024.6 1024.5 0.0
17/10:30am 19.6 22.8 18.8 95 0.5 CALM 0 0 0 0 1024.7 1024.6 0.0
17/10:00am 19.5 22.3 18.8 96 0.4 SE 2 7 1 4 1024.9 1024.8 0.0
17/09:30am 19.4 22.5 18.7 96 0.4 CALM 0 6 0 3 1024.9 1024.8 0.0
17/09:00am 19.2 21.1 18.5 96 0.4 ESE 6 7 3 4 1024.9 1024.8 4.0
17/08:30am 19.0 21.9 18.3 96 0.4 CALM 0 0 0 0 1025.0 1024.9 4.0
17/08:00am 18.8 20.3 18.1 96 0.4 SSW 7 11 4 6 1024.6 1024.5 3.8
17/07:30am 18.8 20.3 18.0 95 0.5 S 7 9 4 5 1024.4 1024.3 3.0
17/07:00am 18.7 20.7 17.9 95 0.5 E 4 7 2 4 1024.1 1024.0 3.0
17/06:30am 18.7 20.7 17.9 95 0.5 N 4 6 2 3 1024.0 1023.9 3.0
17/06:00am 18.7 20.3 17.9 95 0.5 SE 6 9 3 5 1023.6 1023.5 3.0
17/05:30am 18.7 20.1 17.7 94 0.6 SSE 7 11 4 6 1023.5 1023.4 2.2
17/05:00am 18.9 20.0 17.9 94 0.6 ESE 9 11 5 6 1023.3 1023.2 2.0
17/04:30am 19.1 21.2 18.1 94 0.6 SE 4 7 2 4 1023.4 1023.3 1.8
17/04:00am 19.1 20.6 18.1 94 0.6 SSE 7 11 4 6 1023.1 1023.0 1.8
17/03:30am 19.3 20.5 18.3 94 0.6 SE 9 11 5 6 1022.9 1022.8 1.6
17/03:00am 19.5 21.3 18.2 92 0.8 SSW 6 7 3 4 1023.3 1023.2 1.6
17/02:47am 19.7 21.5 18.2 91 0.9 SSE 6 7 3 4 1023.5 1023.4 1.6
17/02:30am 19.8 22.3 18.1 90 1.1 SSE 2 9 1 5 1023.5 1023.4 1.4
17/02:28am 19.8 22.2 17.9 89 1.2 SSE 2 7 1 4 1023.6 1023.5 0.8
17/02:00am 19.6 21.1 17.7 89 1.2 S 6 7 3 4 1023.8 1023.7 0.2
17/01:30am 19.7 22.4 17.8 89 1.2 CALM 0 6 0 3 1023.8 1023.7 0.2
17/01:00am 19.6 21.9 17.6 88 1.2 SSW 2 6 1 3 1023.8 1023.7 0.2
17/12:30am 19.8 21.4 17.8 88 1.2 SSE 6 9 3 5 1023.9 1023.8 0.2
17/12:00am 19.6 21.1 17.7 89 1.2 S 6 9 3 5 1023.9 1023.8 0.2
 
Date/Time
EST
Temp
°C
App
Temp
°C
Dew
Point
Rel
Hum
%
Delta-T
°C
Wind Press
QNH
hPa
Press
MSL
hPa
Rain
since 9 am
mm
Dir
 
Spd
km/h
Gust
km/h
Spd
kts
Gust
kts
16/11:30pm 19.6 21.1 17.6 88 1.2 SW 6 7 3 4 1024.1 1024.0 0.2
16/11:00pm 19.6 20.9 17.6 88 1.2 SSW 7 9 4 5 1024.0 1023.9 0.2
16/10:30pm 19.5 20.8 17.5 88 1.2 SSW 7 9 4 5 1024.1 1024.0 0.2
16/10:00pm 19.6 20.9 17.6 88 1.2 SW 7 11 4 6 1024.2 1024.1 0.2
16/09:30pm 19.4 21.0 17.0 86 1.5 SSW 4 6 2 3 1023.9 1023.8 0.2
16/09:00pm 20.2 21.4 17.4 84 1.7 SE 7 11 4 6 1023.6 1023.5 0.2
16/08:30pm 20.5 20.7 17.7 84 1.7 SE 13 19 7 10 1023.3 1023.2 0.2
16/08:00pm 20.4 19.9 17.8 85 1.6 SSE 17 26 9 14 1023.0 1022.9 0.2
16/07:30pm 20.7 19.7 17.9 84 1.7 SE 20 28 11 15 1022.6 1022.5 0.2
16/07:00pm 20.8 19.8 18.0 84 1.7 SSE 20 32 11 17 1022.1 1022.0 0.2
16/06:30pm 21.1 19.7 17.9 82 2.0 SSE 22 35 12 19 1021.8 1021.7 0.2
16/06:00pm 21.4 20.6 18.4 83 1.9 SSE 20 37 11 20 1021.2 1021.0 0.2
16/05:30pm 21.6 19.8 17.8 79 2.4 SSE 24 39 13 21 1020.5 1020.3 0.2
16/05:00pm 22.3 19.7 17.9 76 2.7 SSE 28 41 15 22 1020.2 1020.0 0.2
16/04:30pm 23.7 21.7 17.4 68 3.9 SSE 24 33 13 18 1019.8 1019.6 0.2
16/04:00pm 27.0 25.8 16.0 51 6.8 S 17 32 9 17 1019.4 1019.2 0.2
16/03:30pm 30.6 29.5 14.2 36 10.0 NW 13 20 7 11 1019.3 1019.1 0.2
16/03:00pm 31.0 29.9 14.2 36 10.2 NW 13 26 7 14 1019.4 1019.2 0.2
16/02:30pm 31.1 28.9 14.3 36 10.2 W 19 30 10 16 1019.5 1019.3 0.2
16/02:00pm 30.8 28.4 14.4 36 10.0 W 20 33 11 18 1019.5 1019.3 0.2
16/01:30pm 31.0 29.4 15.0 38 9.8 W 17 22 9 12 1019.7 1019.5 0.2
16/01:00pm 30.4 29.1 15.7 41 9.1 W 17 26 9 14 1020.1 1019.9 0.2
16/12:30pm 29.7 28.6 15.4 42 8.8 W 15 28 8 15 1020.3 1020.1 0.2
16/12:00pm 29.0 26.9 15.2 43 8.4 WNW 20 33 11 18 1020.8 1020.6 0.2
16/11:30am 28.4 26.9 16.3 47 7.5 W 19 30 10 16 1021.1 1020.9 0.2
16/11:00am 26.8 26.2 16.7 54 6.3 W 15 24 8 13 1021.5 1021.4 0.2
16/10:30am 25.0 25.7 17.0 61 5.0 W 9 15 5 8 1021.9 1021.8 0.0
16/10:00am 23.6 24.5 17.6 69 3.7 WNW 9 15 5 8 1022.1 1022.0 0.0
16/09:30am 21.6 21.9 16.1 71 3.3 WNW 9 11 5 6 1022.3 1022.2 0.0

Other Formats:

Comma delimited format used in spreadsheet applications
http://www.bom.gov.au/fwo/IDN60801/IDN60801.95761.axf

JavaScript Object Notation format (JSON) in row-major order
http://www.bom.gov.au/fwo/IDN60801/IDN60801.95761.json